Time;durP1;ratioP1;P1;durP2;ratioP2;P2;SDS_P1;SDS_P2;PMS_P1;PMS_P2;Temp;Humidity;BMP_temperature;BMP_pressure;BME280_temperature;BME280_humidity;BME280_pressure;Samples;Min_cycle;Max_cycle;Signal;HPM_P1;HPM_P2
2021/10/12 00:02:19;;;;;;;;;;;;;;;;;;5112712;28;19928;-70
2021/10/12 00:04:45;;;;;;;;;;;;;;;;;;5112705;28;19931;-68
2021/10/12 00:07:12;;;;;;;;;;;;;;;;;;5112449;28;19924;-68
2021/10/12 00:09:38;;;;;;;;;;;;;;;;;;5112311;28;19928;-71
2021/10/12 00:12:04;;;;;;;;;;;;;;;;;;5113622;28;20286;-71
2021/10/12 00:14:31;;;;;;;;;;;;;;;;;;5116375;28;19923;-69
2021/10/12 00:16:57;;;;;;;;;;;;;;;;;;5116498;28;19923;-69
2021/10/12 00:19:23;;;;;;;;;;;;;;;;;;5115997;28;20568;-71
2021/10/12 00:21:49;;;;;;;;;;;;;;;;;;5116345;28;19931;-68
2021/10/12 00:24:16;;;;;;;;;;;;;;;;;;5116127;28;20282;-68
2021/10/12 00:26:42;;;;;;;;;;;;;;;;;;5116105;28;19924;-69
2021/10/12 00:29:08;;;;;;;;;;;;;;;;;;5116051;28;19924;-68
2021/10/12 00:31:35;;;;;;;;;;;;;;;;;;5115950;28;20385;-68
2021/10/12 00:34:01;;;;;;;;;;;;;;;;;;5115939;28;19931;-68
2021/10/12 00:36:27;;;;;;;;;;;;;;;;;;5116023;28;19936;-68
2021/10/12 00:38:53;;;;;;;;;;;;;;;;;;5115824;28;19943;-68
2021/10/12 00:41:20;;;;;;;;;;;;;;;;;;5115679;28;19931;-69
2021/10/12 00:43:46;;;;;;;;;;;;;;;;;;5115639;28;20293;-68
2021/10/12 00:46:12;;;;;;;;;;;;;;;;;;5115361;28;19931;-68
2021/10/12 00:48:39;;;;;;;;;;;;;;;;;;5115885;28;19931;-68
2021/10/12 00:51:05;;;;;;;;;;;;;;;;;;5115125;28;19923;-68
2021/10/12 00:53:31;;;;;;;;;;;;;;;;;;5115707;28;19924;-68
2021/10/12 00:55:57;;;;;;;;;;;;;;;;;;5115723;28;20525;-68
2021/10/12 00:58:24;;;;;;;;;;;;;;;;;;5115215;28;19928;-69
2021/10/12 01:00:50;;;;;;;;;;;;;;;;;;5115295;28;20289;-68
2021/10/12 01:03:16;;;;;;;;;;;;;;;;;;5115029;28;19924;-68
2021/10/12 01:05:43;;;;;;;;;;;;;;;;;;5115667;28;19924;-69
2021/10/12 01:08:09;;;;;;;;;;;;;;;;;;5114935;28;20307;-68
2021/10/12 01:10:35;;;;;;;;;;;;;;;;;;5115531;28;19923;-69
2021/10/12 01:13:02;;;;;;;;;;;;;;;;;;5115082;28;19924;-68
2021/10/12 01:15:28;;;;;;;;;;;;;;;;;;5115105;28;20415;-69
2021/10/12 01:17:54;;;;;;;;;;;;;;;;;;5115217;28;19935;-68
2021/10/12 01:20:21;;;;;;;;;;;;;;;;;;5115082;28;19930;-68
2021/10/12 01:22:47;;;;;;;;;;;;;;;;;;5114998;28;19923;-68
2021/10/12 01:25:13;;;;;;;;;;;;;;;;;;5114417;28;19924;-71
2021/10/12 01:27:40;;;;;;;;;;;;;;;;;;5114993;28;19924;-69
2021/10/12 01:30:06;;;;;;;;;;;;;;;;;;5114778;28;19924;-69
2021/10/12 01:32:32;;;;;;;;;;;;;;;;;;5114757;28;19924;-69
2021/10/12 01:34:58;;;;;;;;;;;;;;;;;;5114754;28;19924;-68
2021/10/12 01:37:25;;;;;;;;;;;;;;;;;;5114873;28;19934;-69
2021/10/12 01:39:51;;;;;;;;;;;;;;;;;;5114633;28;19924;-70
2021/10/12 01:42:17;;;;;;;;;;;;;;;;;;5114583;28;19931;-70
2021/10/12 01:44:44;;;;;;;;;;;;;;;;;;5114755;28;20341;-70
2021/10/12 01:47:11;;;;;;;;;;;;;;;;;;5114280;28;19963;-70
2021/10/12 01:49:37;;;;;;;;;;;;;;;;;;5118044;28;19923;-69
2021/10/12 01:52:03;;;;;;;;;;;;;;;;;;5117404;28;20294;-69
2021/10/12 01:54:30;;;;;;;;;;;;;;;;;;5116349;28;19934;-69
2021/10/12 01:56:56;;;;;;;;;;;;;;;;;;5114479;28;19935;-69
2021/10/12 01:59:22;;;;;;;;;;;;;;;;;;5113837;28;19924;-69
2021/10/12 02:01:48;;;;;;;;;;;;;;;;;;5114455;28;19924;-69
2021/10/12 02:04:15;;;;;;;;;;;;;;;;;;5114173;28;19927;-69
2021/10/12 02:06:41;;;;;;;;;;;;;;;;;;5114130;28;19924;-69
2021/10/12 02:09:07;;;;;;;;;;;;;;;;;;5114321;28;19924;-69
2021/10/12 02:11:34;;;;;;;;;;;;;;;;;;5114313;28;19923;-69
2021/10/12 02:14:00;;;;;;;;;;;;;;;;;;5113650;28;19931;-69
2021/10/12 02:16:26;;;;;;;;;;;;;;;;;;5114265;28;19923;-70
2021/10/12 02:18:52;;;;;;;;;;;;;;;;;;5113845;28;19924;-70
2021/10/12 02:21:19;;;;;;;;;;;;;;;;;;5113857;28;19935;-69
2021/10/12 02:23:45;;;;;;;;;;;;;;;;;;5113761;28;20390;-69
2021/10/12 02:26:11;;;;;;;;;;;;;;;;;;5113751;28;19931;-69
2021/10/12 02:28:38;;;;;;;;;;;;;;;;;;5113858;28;19924;-70
2021/10/12 02:31:04;;;;;;;;;;;;;;;;;;5113257;28;19924;-70
2021/10/12 02:33:30;;;;;;;;;;;;;;;;;;5113448;28;19924;-69
2021/10/12 02:35:56;;;;;;;;;;;;;;;;;;5112954;28;19924;-69
2021/10/12 02:38:23;;;;;;;;;;;;;;;;;;5113241;28;19931;-70
2021/10/12 02:40:51;;;;;;;;;;;;;;;;;;5113710;28;19931;-70
2021/10/12 02:43:18;;;;;;;;;;;;;;;;;;5113352;28;20390;-69
2021/10/12 02:45:44;;;;;;;;;;;;;;;;;;5113647;28;19935;-69
2021/10/12 02:48:10;;;;;;;;;;;;;;;;;;5113103;28;20378;-69
2021/10/12 02:50:37;;;;;;;;;;;;;;;;;;5113141;28;19924;-69
2021/10/12 02:53:03;;;;;;;;;;;;;;;;;;5113150;28;19931;-70
2021/10/12 02:55:29;;;;;;;;;;;;;;;;;;5113285;28;19923;-69
2021/10/12 02:57:55;;;;;;;;;;;;;;;;;;5113069;28;19928;-70
2021/10/12 03:00:22;;;;;;;;;;;;;;;;;;5113266;28;19927;-70
2021/10/12 03:02:48;;;;;;;;;;;;;;;;;;5113000;28;20366;-70
2021/10/12 03:05:14;;;;;;;;;;;;;;;;;;5112978;28;19924;-70
2021/10/12 03:07:41;;;;;;;;;;;;;;;;;;5113366;28;19924;-70
2021/10/12 03:10:07;;;;;;;;;;;;;;;;;;5112859;28;19924;-70
2021/10/12 03:12:33;;;;;;;;;;;;;;;;;;5113221;28;19931;-70
2021/10/12 03:15:00;;;;;;;;;;;;;;;;;;5112843;28;19924;-70
2021/10/12 03:17:26;;;;;;;;;;;;;;;;;;5112971;28;19935;-69
2021/10/12 03:19:52;;;;;;;;;;;;;;;;;;5113284;28;19931;-69
2021/10/12 03:22:18;;;;;;;;;;;;;;;;;;5112952;28;20645;-70
2021/10/12 03:24:45;;;;;;;;;;;;;;;;;;5112721;28;19924;-70
2021/10/12 03:27:11;;;;;;;;;;;;;;;;;;5112846;28;19931;-69
2021/10/12 03:29:37;;;;;;;;;;;;;;;;;;5112803;28;20400;-70
2021/10/12 03:32:04;;;;;;;;;;;;;;;;;;5112457;28;19938;-69
2021/10/12 03:34:30;;;;;;;;;;;;;;;;;;5113059;28;19930;-70
2021/10/12 03:36:56;;;;;;;;;;;;;;;;;;5112943;28;20319;-69
2021/10/12 03:39:22;;;;;;;;;;;;;;;;;;5112248;28;19924;-70
2021/10/12 03:41:50;;;;;;;;;;;;;;;;;;5112995;28;19930;-69
2021/10/12 03:44:16;;;;;;;;;;;;;;;;;;5112504;28;19927;-70
2021/10/12 03:46:42;;;;;;;;;;;;;;;;;;5113417;28;19938;-69
2021/10/12 03:49:08;;;;;;;;;;;;;;;;;;5116430;28;20293;-69
2021/10/12 03:51:35;;;;;;;;;;;;;;;;;;5116700;28;19924;-70
2021/10/12 03:54:01;;;;;;;;;;;;;;;;;;5116778;28;19923;-69
2021/10/12 03:56:27;;;;;;;;;;;;;;;;;;5116395;28;20289;-69
2021/10/12 03:58:54;;;;;;;;;;;;;;;;;;5116518;28;19931;-70
2021/10/12 04:01:20;;;;;;;;;;;;;;;;;;5116118;28;20324;-70
2021/10/12 04:03:48;;;;;;;;;;;;;;;;;;5116475;28;19928;-70
2021/10/12 04:06:15;;;;;;;;;;;;;;;;;;5116570;28;19924;-70
2021/10/12 04:08:41;;;;;;;;;;;;;;;;;;5116432;28;19930;-70
2021/10/12 04:11:07;;;;;;;;;;;;;;;;;;5116174;28;19931;-70
2021/10/12 04:13:33;;;;;;;;;;;;;;;;;;5116379;28;20263;-69
2021/10/12 04:16:00;;;;;;;;;;;;;;;;;;5115984;28;19930;-69
2021/10/12 04:18:26;;;;;;;;;;;;;;;;;;5116348;28;19928;-69
2021/10/12 04:20:52;;;;;;;;;;;;;;;;;;5116632;28;20378;-69
2021/10/12 04:23:19;;;;;;;;;;;;;;;;;;5115874;28;19927;-69
2021/10/12 04:25:45;;;;;;;;;;;;;;;;;;5116232;28;19923;-75
2021/10/12 04:28:13;;;;;;;;;;;;;;;;;;5116078;28;20018;-75
2021/10/12 04:30:39;;;;;;;;;;;;;;;;;;5116316;28;19924;-74
2021/10/12 04:33:05;;;;;;;;;;;;;;;;;;5115853;28;20289;-73
2021/10/12 04:35:31;;;;;;;;;;;;;;;;;;5116041;28;19924;-72
2021/10/12 04:37:58;;;;;;;;;;;;;;;;;;5116039;28;19930;-73
2021/10/12 04:40:25;;;;;;;;;;;;;;;;;;5115829;28;20294;-72
2021/10/12 04:42:51;;;;;;;;;;;;;;;;;;5116033;28;19930;-72
2021/10/12 04:45:18;;;;;;;;;;;;;;;;;;5115869;28;19924;-72
2021/10/12 04:47:44;;;;;;;;;;;;;;;;;;5115533;28;20298;-72
2021/10/12 04:50:11;;;;;;;;;;;;;;;;;;5115379;28;20408;-72
2021/10/12 04:52:37;;;;;;;;;;;;;;;;;;5115730;28;19928;-72
2021/10/12 04:55:03;;;;;;;;;;;;;;;;;;5115579;28;19923;-72
2021/10/12 04:57:30;;;;;;;;;;;;;;;;;;5115359;28;19939;-72
2021/10/12 04:59:56;;;;;;;;;;;;;;;;;;5114971;28;19923;-72
2021/10/12 05:02:22;;;;;;;;;;;;;;;;;;5115589;28;19930;-72
2021/10/12 05:04:48;;;;;;;;;;;;;;;;;;5115266;28;19950;-73
2021/10/12 05:07:15;;;;;;;;;;;;;;;;;;5115290;28;19925;-73
2021/10/12 05:09:41;;;;;;;;;;;;;;;;;;5115595;28;19923;-71
2021/10/12 05:12:07;;;;;;;;;;;;;;;;;;5114894;28;19928;-70
2021/10/12 05:14:34;;;;;;;;;;;;;;;;;;5115369;28;19931;-70
2021/10/12 05:17:02;;;;;;;;;;;;;;;;;;5114830;28;20400;-72
2021/10/12 05:19:28;;;;;;;;;;;;;;;;;;5114943;28;19976;-71
2021/10/12 05:21:55;;;;;;;;;;;;;;;;;;5115140;28;19931;-71
2021/10/12 05:24:21;;;;;;;;;;;;;;;;;;5114758;28;19924;-71
2021/10/12 05:26:47;;;;;;;;;;;;;;;;;;5115278;28;19928;-71
2021/10/12 05:29:13;;;;;;;;;;;;;;;;;;5114865;28;20030;-71
2021/10/12 05:31:40;;;;;;;;;;;;;;;;;;5114702;28;20157;-71
2021/10/12 05:34:06;;;;;;;;;;;;;;;;;;5114673;28;19931;-71
2021/10/12 05:36:32;;;;;;;;;;;;;;;;;;5115063;28;19930;-71
2021/10/12 05:38:59;;;;;;;;;;;;;;;;;;5114579;28;19924;-71
2021/10/12 05:41:26;;;;;;;;;;;;;;;;;;5115056;28;19931;-71
2021/10/12 05:43:52;;;;;;;;;;;;;;;;;;5114421;28;19924;-71
2021/10/12 05:46:20;;;;;;;;;;;;;;;;;;5114687;28;19928;-71
2021/10/12 05:48:46;;;;;;;;;;;;;;;;;;5114590;28;20425;-71
2021/10/12 05:51:16;;;;;;;;;;;;;;;;;;5114259;28;19924;-72
2021/10/12 05:53:45;;;;;;;;;;;;;;;;;;5115609;28;19924;-72
2021/10/12 05:56:14;;;;;;;;;;;;;;;;;;5114739;28;19924;-72
2021/10/12 05:58:43;;;;;;;;;;;;;;;;;;5133271;28;19923;-72
2021/10/12 06:01:10;;;;;;;;;;;;;;;;;;5129760;28;19931;-73
2021/10/12 06:03:36;;;;;;;;;;;;;;;;;;5117778;28;20399;-71
2021/10/12 06:06:02;;;;;;;;;;;;;;;;;;5114173;28;19924;-71
2021/10/12 06:08:30;;;;;;;;;;;;;;;;;;5114523;28;20015;-72
2021/10/12 06:10:56;;;;;;;;;;;;;;;;;;5113805;28;19970;-71
2021/10/12 06:13:23;;;;;;;;;;;;;;;;;;5113983;28;19924;-71
2021/10/12 06:15:49;;;;;;;;;;;;;;;;;;5114167;28;19923;-71
2021/10/12 06:18:15;;;;;;;;;;;;;;;;;;5113896;28;19928;-72
2021/10/12 06:20:42;;;;;;;;;;;;;;;;;;5113651;28;19935;-71
2021/10/12 06:23:08;;;;;;;;;;;;;;;;;;5113832;28;19923;-72
2021/10/12 06:25:35;;;;;;;;;;;;;;;;;;5113755;28;20289;-72
2021/10/12 06:28:01;;;;;;;;;;;;;;;;;;5113352;28;19924;-72
2021/10/12 06:30:27;;;;;;;;;;;;;;;;;;5113817;28;19934;-76
2021/10/12 06:32:54;;;;;;;;;;;;;;;;;;5113790;28;19923;-75
2021/10/12 06:35:20;;;;;;;;;;;;;;;;;;5113272;28;19924;-72
2021/10/12 06:37:46;;;;;;;;;;;;;;;;;;5113528;28;19924;-72
2021/10/12 06:40:13;;;;;;;;;;;;;;;;;;5113441;28;19924;-72
2021/10/12 06:42:39;;;;;;;;;;;;;;;;;;5113493;28;20396;-72
2021/10/12 06:45:05;;;;;;;;;;;;;;;;;;5113374;28;19924;-72
2021/10/12 06:47:31;;;;;;;;;;;;;;;;;;5113699;28;20289;-72
2021/10/12 06:49:58;;;;;;;;;;;;;;;;;;5113259;28;19927;-71
2021/10/12 06:52:24;;;;;;;;;;;;;;;;;;5113602;28;19923;-71
2021/10/12 06:54:51;;;;;;;;;;;;;;;;;;5113510;28;20262;-71
2021/10/12 06:57:17;;;;;;;;;;;;;;;;;;5112765;28;19930;-71
2021/10/12 06:59:43;;;;;;;;;;;;;;;;;;5113107;28;19924;-72
2021/10/12 07:02:09;;;;;;;;;;;;;;;;;;5113169;28;19923;-71
2021/10/12 07:04:36;;;;;;;;;;;;;;;;;;5113124;28;19924;-71
2021/10/12 07:07:02;;;;;;;;;;;;;;;;;;5113238;28;19938;-71
2021/10/12 07:09:29;;;;;;;;;;;;;;;;;;5112846;28;20358;-71
2021/10/12 07:11:55;;;;;;;;;;;;;;;;;;5113254;28;19931;-72
2021/10/12 07:14:21;;;;;;;;;;;;;;;;;;5112986;28;19923;-71
2021/10/12 07:16:48;;;;;;;;;;;;;;;;;;5113049;28;20400;-71
2021/10/12 07:19:15;;;;;;;;;;;;;;;;;;5112983;28;19924;-72
2021/10/12 07:21:41;;;;;;;;;;;;;;;;;;5112514;28;20293;-71
2021/10/12 07:24:07;;;;;;;;;;;;;;;;;;5112670;28;19930;-71
2021/10/12 07:26:33;;;;;;;;;;;;;;;;;;5113006;28;19930;-71
2021/10/12 07:29:00;;;;;;;;;;;;;;;;;;5112588;28;20406;-72
2021/10/12 07:31:26;;;;;;;;;;;;;;;;;;5112972;28;19924;-71
2021/10/12 07:33:52;;;;;;;;;;;;;;;;;;5112921;28;19923;-71
2021/10/12 07:36:19;;;;;;;;;;;;;;;;;;5112535;28;20397;-72
2021/10/12 07:38:45;;;;;;;;;;;;;;;;;;5113149;28;19935;-72
2021/10/12 07:41:12;;;;;;;;;;;;;;;;;;5112759;28;19924;-71
2021/10/12 07:43:38;;;;;;;;;;;;;;;;;;5113124;28;19927;-70
2021/10/12 07:46:04;;;;;;;;;;;;;;;;;;5112279;28;20293;-72
2021/10/12 07:48:31;;;;;;;;;;;;;;;;;;5112503;28;19931;-72
2021/10/12 07:50:57;;;;;;;;;;;;;;;;;;5113069;28;19931;-72
2021/10/12 07:53:23;;;;;;;;;;;;;;;;;;5112987;28;19924;-73
2021/10/12 07:55:52;;;;;;;;;;;;;;;;;;5112420;28;19924;-73
2021/10/12 07:58:18;;;;;;;;;;;;;;;;;;5112220;28;19923;-73
2021/10/12 08:00:44;;;;;;;;;;;;;;;;;;5112831;28;19935;-73
2021/10/12 08:03:11;;;;;;;;;;;;;;;;;;5112187;28;19931;-70
2021/10/12 08:05:37;;;;;;;;;;;;;;;;;;5112484;28;20018;-70
2021/10/12 08:08:03;;;;;;;;;;;;;;;;;;5112094;28;19924;-70
2021/10/12 08:10:30;;;;;;;;;;;;;;;;;;5112709;28;19923;-70
2021/10/12 08:12:58;;;;;;;;;;;;;;;;;;5112398;28;19930;-71
2021/10/12 08:15:24;;;;;;;;;;;;;;;;;;5112717;28;19967;-71
2021/10/12 08:17:51;;;;;;;;;;;;;;;;;;5112172;28;19931;-70
2021/10/12 08:20:17;;;;;;;;;;;;;;;;;;5112404;28;19930;-70
2021/10/12 08:22:44;;;;;;;;;;;;;;;;;;5112397;28;20294;-70
2021/10/12 08:25:10;;;;;;;;;;;;;;;;;;5112145;28;19924;-73
2021/10/12 08:27:36;;;;;;;;;;;;;;;;;;5112575;28;19953;-71
2021/10/12 08:30:02;;;;;;;;;;;;;;;;;;5111911;28;19924;-71
2021/10/12 08:32:29;;;;;;;;;;;;;;;;;;5112503;28;19928;-70
2021/10/12 08:34:55;;;;;;;;;;;;;;;;;;5114741;28;20022;-70
2021/10/12 08:37:21;;;;;;;;;;;;;;;;;;5115705;28;20390;-71
2021/10/12 08:39:48;;;;;;;;;;;;;;;;;;5115758;28;19923;-71
2021/10/12 08:42:14;;;;;;;;;;;;;;;;;;5115772;28;19931;-71
2021/10/12 08:44:40;;;;;;;;;;;;;;;;;;5115972;28;19947;-71
2021/10/12 08:47:07;;;;;;;;;;;;;;;;;;5115449;28;19931;-71
2021/10/12 08:49:33;;;;;;;;;;;;;;;;;;5115553;28;19923;-70
2021/10/12 08:51:59;;;;;;;;;;;;;;;;;;5115638;28;19928;-72
2021/10/12 08:54:25;;;;;;;;;;;;;;;;;;5115491;28;19931;-72
2021/10/12 08:56:52;;;;;;;;;;;;;;;;;;5115744;28;19924;-71
2021/10/12 08:59:18;;;;;;;;;;;;;;;;;;5115851;28;20257;-71
2021/10/12 09:01:44;;;;;;;;;;;;;;;;;;5115341;28;19927;-70
2021/10/12 09:04:11;;;;;;;;;;;;;;;;;;5115316;28;19924;-71
2021/10/12 09:06:37;;;;;;;;;;;;;;;;;;5115378;28;20301;-70
2021/10/12 09:09:04;;;;;;;;;;;;;;;;;;5115437;28;19924;-70
2021/10/12 09:11:30;;;;;;;;;;;;;;;;;;5114967;28;19925;-70
2021/10/12 09:14:01;;;;;;;;;;;;;;;;;;5115330;28;19923;-71
2021/10/12 09:16:32;;;;;;;;;;;;;;;;;;5115135;28;19973;-71
2021/10/12 09:18:58;;;;;;;;;;;;;;;;;;5115429;28;20478;-71
2021/10/12 09:21:25;;;;;;;;;;;;;;;;;;5115101;28;19949;-70
2021/10/12 09:23:51;;;;;;;;;;;;;;;;;;5115118;28;19969;-71
2021/10/12 09:26:18;;;;;;;;;;;;;;;;;;5115213;28;19931;-71
2021/10/12 09:28:44;;;;;;;;;;;;;;;;;;5115016;28;20352;-71
2021/10/12 09:31:10;;;;;;;;;;;;;;;;;;5114357;28;19930;-71
2021/10/12 09:33:37;;;;;;;;;;;;;;;;;;5115099;28;19924;-71
2021/10/12 09:36:03;;;;;;;;;;;;;;;;;;5114485;28;19923;-72
2021/10/12 09:38:29;;;;;;;;;;;;;;;;;;5115137;28;19928;-71
2021/10/12 09:40:55;;;;;;;;;;;;;;;;;;5114887;28;19924;-71
2021/10/12 09:43:22;;;;;;;;;;;;;;;;;;5114495;28;19924;-72
2021/10/12 09:45:48;;;;;;;;;;;;;;;;;;5114081;28;20396;-71
2021/10/12 09:48:14;;;;;;;;;;;;;;;;;;5114305;28;19924;-75
2021/10/12 09:50:41;;;;;;;;;;;;;;;;;;5114794;28;19923;-72
2021/10/12 09:53:07;;;;;;;;;;;;;;;;;;5114085;28;20289;-73
2021/10/12 09:55:33;;;;;;;;;;;;;;;;;;5114507;28;19923;-72
2021/10/12 09:58:00;;;;;;;;;;;;;;;;;;5114392;28;19934;-72
2021/10/12 10:00:26;;;;;;;;;;;;;;;;;;5127974;28;19930;-72
2021/10/12 10:02:52;;;;;;;;;;;;;;;;;;5135988;28;19924;-71
2021/10/12 10:05:20;;;;;;;;;;;;;;;;;;5127061;28;19928;-72
2021/10/12 10:07:46;;;;;;;;;;;;;;;;;;5114216;28;20340;-72
2021/10/12 10:10:13;;;;;;;;;;;;;;;;;;5114299;28;19931;-71
2021/10/12 10:12:39;;;;;;;;;;;;;;;;;;5114788;28;20300;-72
2021/10/12 10:15:05;;;;;;;;;;;;;;;;;;5113799;28;19924;-72
2021/10/12 10:17:31;;;;;;;;;;;;;;;;;;5114372;28;19924;-72
2021/10/12 10:19:58;;;;;;;;;;;;;;;;;;5114050;28;19947;-71
2021/10/12 10:22:24;;;;;;;;;;;;;;;;;;5113747;28;19924;-71
2021/10/12 10:24:56;;;;;;;;;;;;;;;;;;5114038;28;19957;-71
2021/10/12 10:27:22;;;;;;;;;;;;;;;;;;5113813;28;19924;-71
2021/10/12 10:29:48;;;;;;;;;;;;;;;;;;5113818;28;19965;-71
2021/10/12 10:32:14;;;;;;;;;;;;;;;;;;5113465;28;20282;-71
2021/10/12 10:34:41;;;;;;;;;;;;;;;;;;5113724;28;19924;-71
2021/10/12 10:37:07;;;;;;;;;;;;;;;;;;5113664;28;19927;-72
2021/10/12 10:39:33;;;;;;;;;;;;;;;;;;5113842;28;20009;-71
2021/10/12 10:42:00;;;;;;;;;;;;;;;;;;5113091;28;19928;-71
2021/10/12 10:44:26;;;;;;;;;;;;;;;;;;5113712;28;19924;-71
2021/10/12 10:46:52;;;;;;;;;;;;;;;;;;5113344;28;19923;-71
2021/10/12 10:49:19;;;;;;;;;;;;;;;;;;5113167;28;19927;-71
2021/10/12 10:51:46;;;;;;;;;;;;;;;;;;5113255;28;20294;-71
2021/10/12 10:54:12;;;;;;;;;;;;;;;;;;5113103;28;19931;-71
2021/10/12 10:56:38;;;;;;;;;;;;;;;;;;5112509;28;19935;-71
2021/10/12 10:59:05;;;;;;;;;;;;;;;;;;5113004;28;19938;-72
2021/10/12 11:01:31;;;;;;;;;;;;;;;;;;5112918;28;19931;-72
2021/10/12 11:03:57;;;;;;;;;;;;;;;;;;5113252;28;19924;-71
2021/10/12 11:06:24;;;;;;;;;;;;;;;;;;5113074;28;19975;-71
2021/10/12 11:08:50;;;;;;;;;;;;;;;;;;5113387;28;19928;-72
2021/10/12 11:11:16;;;;;;;;;;;;;;;;;;5112760;28;20279;-72
2021/10/12 11:13:42;;;;;;;;;;;;;;;;;;5112766;28;19924;-73
2021/10/12 11:16:09;;;;;;;;;;;;;;;;;;5113017;28;19924;-72
2021/10/12 11:18:35;;;;;;;;;;;;;;;;;;5112805;28;19935;-72
2021/10/12 11:21:02;;;;;;;;;;;;;;;;;;5112888;28;19924;-72
2021/10/12 11:23:29;;;;;;;;;;;;;;;;;;5113128;28;19924;-73
2021/10/12 11:25:55;;;;;;;;;;;;;;;;;;5113132;28;19924;-71
2021/10/12 11:28:21;;;;;;;;;;;;;;;;;;5112503;28;19931;-71
2021/10/12 11:30:48;;;;;;;;;;;;;;;;;;5113026;28;19924;-71
2021/10/12 11:33:14;;;;;;;;;;;;;;;;;;5112776;28;19923;-71
2021/10/12 11:35:40;;;;;;;;;;;;;;;;;;5112714;28;19935;-71
2021/10/12 11:38:07;;;;;;;;;;;;;;;;;;5112897;28;19923;-71
2021/10/12 11:40:33;;;;;;;;;;;;;;;;;;5112673;28;19924;-72
2021/10/12 11:43:00;;;;;;;;;;;;;;;;;;5112530;28;19931;-72
2021/10/12 11:45:26;;;;;;;;;;;;;;;;;;5112939;28;19928;-72
2021/10/12 11:47:52;;;;;;;;;;;;;;;;;;5112979;28;20290;-72
2021/10/12 11:50:19;;;;;;;;;;;;;;;;;;5112816;28;19928;-72
2021/10/12 11:52:45;;;;;;;;;;;;;;;;;;5112917;28;19928;-72
2021/10/12 11:55:11;;;;;;;;;;;;;;;;;;5112381;28;19927;-72
2021/10/12 11:57:38;;;;;;;;;;;;;;;;;;5112267;28;19931;-71
2021/10/12 12:00:04;;;;;;;;;;;;;;;;;;5112532;28;19924;-71
2021/10/12 12:02:30;;;;;;;;;;;;;;;;;;5112433;28;20433;-71
2021/10/12 12:04:58;;;;;;;;;;;;;;;;;;5112684;28;19928;-72
2021/10/12 12:07:24;;;;;;;;;;;;;;;;;;5114716;28;19969;-71
2021/10/12 12:09:50;;;;;;;;;;;;;;;;;;5118386;28;19923;-72
2021/10/12 12:12:17;;;;;;;;;;;;;;;;;;5116047;28;20421;-72
2021/10/12 12:14:43;;;;;;;;;;;;;;;;;;5116457;28;19924;-72
2021/10/12 12:17:09;;;;;;;;;;;;;;;;;;5116192;28;19923;-72
2021/10/12 12:19:36;;;;;;;;;;;;;;;;;;5116109;28;19939;-71
2021/10/12 12:22:02;;;;;;;;;;;;;;;;;;5116159;28;19928;-72
2021/10/12 12:24:28;;;;;;;;;;;;;;;;;;5116155;28;20405;-72
2021/10/12 12:26:54;;;;;;;;;;;;;;;;;;5115947;28;19924;-71
2021/10/12 12:29:21;;;;;;;;;;;;;;;;;;5115940;28;19923;-71
2021/10/12 12:31:47;;;;;;;;;;;;;;;;;;5115921;28;20373;-71
2021/10/12 12:34:13;;;;;;;;;;;;;;;;;;5115536;28;19924;-70
2021/10/12 12:36:40;;;;;;;;;;;;;;;;;;5115718;28;19931;-68
2021/10/12 12:39:07;;;;;;;;;;;;;;;;;;5115665;28;19954;-71
2021/10/12 12:41:33;;;;;;;;;;;;;;;;;;5115603;28;19924;-70
2021/10/12 12:44:01;;;;;;;;;;;;;;;;;;5115703;28;19931;-70
2021/10/12 12:46:27;;;;;;;;;;;;;;;;;;5115874;28;19923;-70
2021/10/12 12:48:53;;;;;;;;;;;;;;;;;;5115838;28;19924;-70
2021/10/12 12:51:19;;;;;;;;;;;;;;;;;;5115400;28;19928;-71
2021/10/12 12:53:46;;;;;;;;;;;;;;;;;;5115379;28;19927;-70
2021/10/12 12:56:12;;;;;;;;;;;;;;;;;;5115405;28;19928;-71
2021/10/12 12:58:38;;;;;;;;;;;;;;;;;;5115271;28;19923;-70
2021/10/12 13:01:05;;;;;;;;;;;;;;;;;;5115263;28;19962;-70
2021/10/12 13:03:31;;;;;;;;;;;;;;;;;;5115252;28;19924;-70
2021/10/12 13:05:57;;;;;;;;;;;;;;;;;;5115105;28;19924;-70
2021/10/12 13:08:24;;;;;;;;;;;;;;;;;;5115646;28;19924;-70
2021/10/12 13:10:50;;;;;;;;;;;;;;;;;;5115089;28;20412;-70
2021/10/12 13:13:16;;;;;;;;;;;;;;;;;;5115153;28;19924;-70
2021/10/12 13:15:42;;;;;;;;;;;;;;;;;;5114776;28;20297;-70
2021/10/12 13:18:09;;;;;;;;;;;;;;;;;;5114639;28;19930;-70
2021/10/12 13:20:35;;;;;;;;;;;;;;;;;;5114475;28;19931;-69
2021/10/12 13:23:01;;;;;;;;;;;;;;;;;;5114604;28;20370;-70
2021/10/12 13:25:28;;;;;;;;;;;;;;;;;;5114864;28;19923;-71
2021/10/12 13:27:54;;;;;;;;;;;;;;;;;;5115059;28;19923;-70
2021/10/12 13:30:20;;;;;;;;;;;;;;;;;;5114434;28;19923;-70
2021/10/12 13:32:46;;;;;;;;;;;;;;;;;;5115045;28;19931;-70
2021/10/12 13:35:14;;;;;;;;;;;;;;;;;;5114650;28;19927;-70
2021/10/12 13:37:40;;;;;;;;;;;;;;;;;;5114798;28;19924;-70
2021/10/12 13:40:07;;;;;;;;;;;;;;;;;;5114830;28;19924;-72
2021/10/12 13:42:33;;;;;;;;;;;;;;;;;;5114671;28;20014;-71
2021/10/12 13:44:59;;;;;;;;;;;;;;;;;;5114166;28;20378;-71
2021/10/12 13:47:25;;;;;;;;;;;;;;;;;;5114368;28;19923;-72
2021/10/12 13:49:52;;;;;;;;;;;;;;;;;;5114575;28;19924;-70
2021/10/12 13:52:19;;;;;;;;;;;;;;;;;;5114016;28;20374;-70
2021/10/12 13:54:46;;;;;;;;;;;;;;;;;;5114722;28;19934;-71
2021/10/12 13:57:12;;;;;;;;;;;;;;;;;;5113680;28;20374;-71
2021/10/12 13:59:38;;;;;;;;;;;;;;;;;;5114334;28;19931;-70
2021/10/12 14:02:04;;;;;;;;;;;;;;;;;;5114169;28;19946;-70
2021/10/12 14:04:31;;;;;;;;;;;;;;;;;;5114219;28;19931;-70
2021/10/12 14:06:57;;;;;;;;;;;;;;;;;;5114217;28;19927;-70
2021/10/12 14:09:25;;;;;;;;;;;;;;;;;;5113739;28;20370;-70
2021/10/12 14:11:51;;;;;;;;;;;;;;;;;;5114191;28;19924;-70
2021/10/12 14:14:17;;;;;;;;;;;;;;;;;;5113714;28;20293;-69
2021/10/12 14:16:44;;;;;;;;;;;;;;;;;;5113797;28;19928;-71
2021/10/12 14:22:04;;;;;;;;;;;;;;;;;;5111988;28;19923;-71
2021/10/12 14:24:31;;;;;;;;;;;;;;;;;;5114075;28;20421;-70
2021/10/12 14:27:01;;;;;;;;;;;;;;;;;;5113599;28;19930;-69
2021/10/12 14:29:27;;;;;;;;;;;;;;;;;;5114293;28;20022;-71
2021/10/12 14:31:53;;;;;;;;;;;;;;;;;;5113763;28;20410;-69
2021/10/12 14:34:19;;;;;;;;;;;;;;;;;;5113361;28;19934;-69
2021/10/12 14:36:46;;;;;;;;;;;;;;;;;;5112772;28;19928;-70
2021/10/12 14:39:12;;;;;;;;;;;;;;;;;;5111673;28;20298;-70
2021/10/12 14:41:38;;;;;;;;;;;;;;;;;;5112942;28;19931;-69
2021/10/12 14:44:05;;;;;;;;;;;;;;;;;;5113014;28;19958;-70
2021/10/12 14:46:31;;;;;;;;;;;;;;;;;;5113086;28;20396;-70
2021/10/12 14:48:59;;;;;;;;;;;;;;;;;;5112969;28;19924;-70
2021/10/12 14:51:28;;;;;;;;;;;;;;;;;;5113245;28;19924;-70
2021/10/12 14:53:56;;;;;;;;;;;;;;;;;;5113071;28;19931;-71
2021/10/12 14:56:23;;;;;;;;;;;;;;;;;;5113046;28;19927;-70
2021/10/12 14:58:50;;;;;;;;;;;;;;;;;;5113228;28;20313;-70
2021/10/12 15:01:33;;;;;;;;;;;;;;;;;;5112170;28;20426;-70
2021/10/12 15:04:01;;;;;;;;;;;;;;;;;;5113188;28;19924;-70
2021/10/12 15:06:27;;;;;;;;;;;;;;;;;;5113292;28;20000;-70
2021/10/12 15:08:54;;;;;;;;;;;;;;;;;;5113337;28;19928;-70
2021/10/12 15:11:20;;;;;;;;;;;;;;;;;;5112587;28;19924;-71
2021/10/12 15:13:46;;;;;;;;;;;;;;;;;;5112948;28;20394;-70
2021/10/12 15:16:13;;;;;;;;;;;;;;;;;;5112550;28;19924;-70
2021/10/12 15:18:39;;;;;;;;;;;;;;;;;;5113144;28;19924;-71
2021/10/12 15:21:06;;;;;;;;;;;;;;;;;;5112949;28;20274;-70
2021/10/12 15:23:32;;;;;;;;;;;;;;;;;;5113204;28;19928;-70
2021/10/12 15:25:58;;;;;;;;;;;;;;;;;;5112809;28;20290;-71
2021/10/12 15:28:25;;;;;;;;;;;;;;;;;;5112754;28;19924;-71
2021/10/12 15:30:51;;;;;;;;;;;;;;;;;;5112848;28;19930;-71
2021/10/12 15:33:17;;;;;;;;;;;;;;;;;;5112497;28;20275;-72
2021/10/12 15:35:43;;;;;;;;;;;;;;;;;;5112816;28;19934;-72
2021/10/12 15:38:10;;;;;;;;;;;;;;;;;;5112648;28;19924;-72
2021/10/12 15:40:36;;;;;;;;;;;;;;;;;;5112418;28;19939;-70
2021/10/12 15:43:02;;;;;;;;;;;;;;;;;;5113810;28;19931;-71
2021/10/12 15:45:29;;;;;;;;;;;;;;;;;;5116676;28;20267;-72
2021/10/12 15:47:56;;;;;;;;;;;;;;;;;;5116770;28;19923;-72
2021/10/12 15:50:22;;;;;;;;;;;;;;;;;;5116613;28;19923;-72
2021/10/12 15:52:48;;;;;;;;;;;;;;;;;;5116658;28;20652;-72
2021/10/12 15:55:14;;;;;;;;;;;;;;;;;;5116198;28;19937;-72
2021/10/12 15:57:41;;;;;;;;;;;;;;;;;;5116588;28;19930;-72
2021/10/12 16:00:07;;;;;;;;;;;;;;;;;;5116501;28;20028;-71
2021/10/12 16:02:33;;;;;;;;;;;;;;;;;;5116361;28;19923;-71
2021/10/12 16:05:02;;;;;;;;;;;;;;;;;;5116481;28;19924;-72
2021/10/12 16:07:28;;;;;;;;;;;;;;;;;;5116638;28;19923;-72
2021/10/12 16:09:54;;;;;;;;;;;;;;;;;;5116619;28;19928;-71
2021/10/12 16:12:21;;;;;;;;;;;;;;;;;;5115981;28;19931;-71
2021/10/12 16:22:51;;;;;;;;;;;;;;;;;;5115830;28;19920;-72
2021/10/12 16:25:18;;;;;;;;;;;;;;;;;;5116050;28;19924;-72
2021/10/12 16:27:44;;;;;;;;;;;;;;;;;;5116014;28;20366;-72
2021/10/12 16:30:10;;;;;;;;;;;;;;;;;;5116021;28;19924;-73
2021/10/12 16:32:37;;;;;;;;;;;;;;;;;;5116212;28;19923;-73
2021/10/12 16:35:03;;;;;;;;;;;;;;;;;;5115603;28;19930;-72
2021/10/12 16:37:29;;;;;;;;;;;;;;;;;;5115676;28;19923;-71
2021/10/12 16:39:56;;;;;;;;;;;;;;;;;;5116077;28;19923;-72
2021/10/12 16:42:24;;;;;;;;;;;;;;;;;;5115780;28;19927;-72
2021/10/12 16:44:50;;;;;;;;;;;;;;;;;;5115992;28;19977;-72
2021/10/12 16:47:16;;;;;;;;;;;;;;;;;;5115324;28;20432;-72
2021/10/12 16:49:43;;;;;;;;;;;;;;;;;;5115612;28;19924;-71
2021/10/12 16:52:11;;;;;;;;;;;;;;;;;;5115283;28;19924;-71